aviador You're here:

ROIG Decoded Metar

ISHIGAKI in JAPAN
Report Time2017-09-24 22:00:00
UTC Time2017-09-24 23:06:26
Flight Rules vfr VFR
Wind230° at 03 kt
W.Decomp.*RWY 22: 2.9 kt HW 0.7 kt RCW
W.Rank230° ranks 26
Current wind is below 230° avg. (9.3)
Visibility9999 m
Phenomena:N/A
Clouds:Few 020 Hf
Expected CloudBase > 400 ft AGL from Temp-Dew spread
CeilingNone
Temp26°C (ISA +11)
Dew Point25°C (94% RH)
QNH1011 hPa
Density Alt1,781 ft
Elevation23 ft
Report Wrong Elevation
Raw Report
METAR ROIG 242200Z 23003KT 9999 FEW020 BKN/// 26/25 Q1011=

Extra information for ROIG:More info

Metar Taf Metar & Taf Last 4 Metars F.Rules Stats Wind Profile Meteogram Temp Stats Airport Information Weather charts Add Link Nearby VenuesMetar ALERT Operation Metar Decoded Social comments